createdAt,value
2018-07-01T16:02:41.819Z,28.44
2018-07-01T16:03:41.808Z,30.19
2018-07-01T16:04:41.794Z,29.72
2018-07-01T16:05:41.786Z,28.17
2018-07-01T16:06:41.775Z,27.76
2018-07-01T16:07:41.772Z,28.54
2018-07-01T16:08:41.764Z,28.05
2018-07-01T16:09:41.751Z,28.44
2018-07-01T16:10:41.747Z,28.64
2018-07-01T16:11:41.734Z,29.80
2018-07-01T16:12:41.735Z,28.74
2018-07-01T16:13:41.718Z,29.71
2018-07-01T16:14:41.716Z,29.02
2018-07-01T16:15:41.710Z,29.12
2018-07-01T16:16:41.689Z,28.25
2018-07-01T16:17:41.740Z,27.96
2018-07-01T16:18:41.683Z,28.44
2018-07-01T16:19:41.666Z,27.96
2018-07-01T16:20:41.664Z,28.25
2018-07-01T16:21:41.654Z,28.23
2018-07-01T16:22:41.647Z,29.90
2018-07-01T16:23:41.635Z,28.83
2018-07-01T16:24:41.630Z,28.64
2018-07-01T16:25:41.619Z,28.25
2018-07-01T16:26:41.616Z,28.44
2018-07-01T16:27:41.606Z,27.76
2018-07-01T16:28:41.628Z,28.34
2018-07-01T16:29:41.587Z,28.05
2018-07-01T16:30:41.582Z,28.15
2018-07-01T16:31:41.572Z,28.83
2018-07-01T16:32:41.575Z,28.44
2018-07-01T16:33:41.568Z,27.84
2018-07-01T16:34:41.590Z,28.81
2018-07-01T16:35:41.543Z,30.29
2018-07-01T16:36:41.603Z,29.61
2018-07-01T16:37:41.528Z,28.54
2018-07-01T16:38:41.628Z,28.25
2018-07-01T16:39:41.507Z,27.86
2018-07-01T16:40:41.517Z,28.54
2018-07-01T16:41:41.488Z,28.23
2018-07-01T16:42:41.533Z,28.14
2018-07-01T16:43:41.469Z,28.33
2018-07-01T16:44:41.514Z,28.91
2018-07-01T16:45:41.465Z,28.53
2018-07-01T16:46:41.508Z,28.23
2018-07-01T16:47:41.440Z,29.69
2018-07-01T16:48:41.429Z,28.81
2018-07-01T16:49:41.431Z,28.33
2018-07-01T16:50:41.415Z,28.53
2018-07-01T16:51:41.407Z,28.43
2018-07-01T16:52:41.391Z,27.84
2018-07-01T16:53:41.388Z,28.91
2018-07-01T16:54:41.375Z,28.53
2018-07-01T16:55:41.387Z,28.33
2018-07-01T16:56:41.361Z,28.81
2018-07-01T16:57:41.354Z,28.33
2018-07-01T16:58:41.343Z,28.81
2018-07-01T16:59:41.335Z,28.80
2018-07-01T17:00:41.336Z,28.41
2018-07-01T17:01:41.319Z,28.80
2018-07-01T17:02:41.316Z,28.22
2018-07-01T17:03:41.308Z,29.28
2018-07-01T17:04:41.297Z,28.51
2018-07-01T17:05:41.287Z,28.70
2018-07-01T17:06:41.277Z,28.51
2018-07-01T17:07:41.267Z,29.77
2018-07-01T17:08:41.267Z,28.51
2018-07-01T17:09:41.251Z,28.80
2018-07-01T17:10:41.244Z,28.32
2018-07-01T17:11:41.243Z,28.13
2018-07-01T17:12:41.225Z,28.32
2018-07-01T17:13:41.354Z,28.70
2018-07-01T17:14:41.219Z,29.58
2018-07-01T17:15:41.199Z,28.32
2018-07-01T17:16:41.193Z,28.70
2018-07-01T17:17:41.183Z,28.32
2018-07-01T17:18:41.176Z,28.03
2018-07-01T17:19:41.215Z,28.02
2018-07-01T17:20:41.159Z,28.40
2018-07-01T17:21:41.161Z,28.79
2018-07-01T17:22:41.147Z,28.20
2018-07-01T17:23:41.140Z,28.03
2018-07-01T17:24:41.128Z,28.20
2018-07-01T17:25:41.127Z,28.11
2018-07-01T17:26:41.110Z,28.30
2018-07-01T17:27:41.097Z,28.50
2018-07-01T17:28:41.104Z,28.89
2018-07-01T17:29:41.086Z,29.27
2018-07-01T17:30:41.072Z,29.08
2018-07-01T17:31:41.067Z,28.50
2018-07-01T17:32:41.058Z,28.40
2018-07-01T17:33:41.045Z,28.40
2018-07-01T17:34:41.043Z,28.50
2018-07-01T17:35:41.044Z,28.19
2018-07-01T17:36:41.017Z,28.39
2018-07-01T17:37:41.020Z,28.89
2018-07-01T17:38:41.020Z,28.77
2018-07-01T17:39:40.999Z,28.49
2018-07-01T17:40:40.994Z,28.68
2018-07-01T17:41:40.973Z,28.58
2018-07-01T17:42:40.965Z,28.68
2018-07-01T17:43:40.967Z,28.68
2018-07-01T17:44:40.956Z,29.36
2018-07-01T17:45:40.941Z,29.16
2018-07-01T17:46:40.925Z,28.68
2018-07-01T17:47:40.923Z,28.28
2018-07-01T17:48:40.918Z,29.05
2018-07-01T17:49:40.905Z,28.66
2018-07-01T17:50:40.891Z,28.56
2018-07-01T17:51:40.887Z,28.76
2018-07-01T17:52:40.879Z,28.66
2018-07-01T17:53:40.916Z,28.56
2018-07-01T17:54:40.857Z,28.76
2018-07-01T17:55:40.849Z,29.34
2018-07-01T17:56:40.845Z,29.15
2018-07-01T17:57:40.840Z,28.86
2018-07-01T17:58:40.829Z,28.76
2018-07-01T17:59:40.816Z,28.76
2018-07-01T18:00:40.814Z,28.76
2018-07-01T18:01:40.795Z,28.76
2018-07-01T18:02:40.783Z,29.83
2018-07-01T18:03:40.779Z,29.92
2018-07-01T18:04:40.764Z,30.31
2018-07-01T18:05:40.755Z,30.02
2018-07-01T18:06:40.748Z,29.92
2018-07-01T18:07:40.739Z,29.73
2018-07-01T18:08:40.729Z,29.92
2018-07-01T18:09:40.826Z,30.02
2018-07-01T18:10:40.720Z,30.11
2018-07-01T18:11:40.703Z,30.02
2018-07-01T18:12:40.688Z,29.73
2018-07-01T18:13:40.680Z,30.02
2018-07-01T18:14:40.673Z,29.73
2018-07-01T18:15:40.669Z,30.10
2018-07-01T18:16:40.652Z,29.92
2018-07-01T18:17:40.640Z,30.21
2018-07-01T18:18:40.681Z,30.21
2018-07-01T18:19:40.629Z,29.73
2018-07-01T18:20:40.613Z,30.02
2018-07-01T18:21:42.929Z,29.73
2018-07-01T18:23:09.758Z,29.81
2018-07-01T18:24:11.129Z,30.02
2018-07-01T18:24:58.070Z,30.31
2018-07-01T18:25:40.574Z,30.21
2018-07-01T18:26:40.589Z,30.20
2018-07-01T18:27:47.839Z,30.00
2018-07-01T18:28:48.662Z,30.00
2018-07-01T18:29:40.539Z,29.91
2018-07-01T18:30:40.524Z,30.00
2018-07-01T18:31:40.560Z,30.98
2018-07-01T18:32:40.501Z,31.16
2018-07-01T18:33:40.488Z,31.56
2018-07-01T18:34:40.595Z,30.58
2018-07-01T18:35:40.479Z,30.08
2018-07-01T18:36:40.470Z,30.57
2018-07-01T18:37:40.449Z,30.47
2018-07-01T18:38:40.532Z,30.66
2018-07-01T18:39:40.437Z,31.44
2018-07-01T18:40:40.421Z,30.96
2018-07-01T18:41:40.417Z,30.18
2018-07-01T18:42:40.404Z,30.66
2018-07-01T18:43:40.397Z,31.05
2018-07-01T18:44:40.388Z,31.25
2018-07-01T18:45:40.380Z,31.63
2018-07-01T18:46:40.374Z,31.15
2018-07-01T18:47:40.355Z,31.34
2018-07-01T18:48:40.377Z,31.05
2018-07-01T18:49:40.338Z,30.75
2018-07-01T18:50:40.327Z,31.43
2018-07-01T18:51:40.317Z,32.01
2018-07-01T18:52:40.310Z,31.52
2018-07-01T18:53:40.310Z,31.62
2018-07-01T18:54:40.286Z,31.43
2018-07-01T18:55:40.333Z,31.43
2018-07-01T18:56:40.264Z,32.10
2018-07-01T18:57:40.257Z,31.13
2018-07-01T18:58:40.255Z,31.52
2018-07-01T18:59:40.344Z,32.29
2018-07-01T19:00:40.230Z,31.81
2018-07-01T19:01:40.303Z,31.71
2018-07-01T19:02:40.207Z,31.81
2018-07-01T19:03:40.243Z,32.01
2018-07-01T19:04:40.190Z,32.39
2018-07-01T19:05:40.179Z,32.78
2018-07-01T19:06:40.168Z,32.20
2018-07-01T19:07:40.158Z,32.47
2018-07-01T19:08:40.155Z,31.80
2018-07-01T19:09:40.135Z,32.09
2018-07-01T19:10:40.143Z,32.57
2018-07-01T19:11:40.128Z,32.38
2018-07-01T19:12:40.132Z,32.09
2018-07-01T19:13:40.094Z,32.47
2018-07-01T19:14:40.082Z,32.67
2018-07-01T19:15:40.094Z,33.15
2018-07-01T19:16:40.067Z,32.47
2018-07-01T19:17:40.059Z,32.38
2018-07-01T19:18:40.045Z,32.38
2018-07-01T19:19:40.037Z,32.65
2018-07-01T19:20:40.025Z,33.04
2018-07-01T19:21:40.017Z,33.04
2018-07-01T19:22:40.010Z,33.04
2018-07-01T19:23:40.003Z,32.75
2018-07-01T19:24:39.987Z,33.23
2018-07-01T19:25:39.976Z,32.65
2018-07-01T19:26:39.967Z,33.04
2018-07-01T19:27:39.963Z,33.23
2018-07-01T19:28:39.944Z,33.23
2018-07-01T19:29:39.932Z,33.42
2018-07-01T19:30:39.917Z,33.33
2018-07-01T19:31:39.908Z,33.72
2018-07-01T19:32:39.899Z,33.62
2018-07-01T19:33:39.886Z,34.39
2018-07-01T19:34:39.877Z,33.91
2018-07-01T19:35:39.868Z,33.91
2018-07-01T19:36:39.858Z,34.00
2018-07-01T19:37:39.855Z,34.97
2018-07-01T19:38:39.840Z,34.20
2018-07-01T19:39:39.832Z,34.29
2018-07-01T19:40:39.816Z,34.29
2018-07-01T19:41:39.804Z,34.58
2018-07-01T19:42:39.920Z,34.58
2018-07-01T19:43:40.064Z,34.48
2018-07-01T19:44:39.779Z,34.68
2018-07-01T19:45:39.767Z,34.48
2018-07-01T19:46:39.751Z,34.76
2018-07-01T19:47:39.746Z,34.78
2018-07-01T19:48:39.753Z,34.97
2018-07-01T19:49:39.717Z,34.86
2018-07-01T19:50:39.717Z,34.95
2018-07-01T19:51:39.710Z,35.14
2018-07-01T19:52:39.695Z,35.24
2018-07-01T19:53:39.688Z,35.44
2018-07-01T19:54:39.666Z,35.32
2018-07-01T19:55:39.667Z,36.21
2018-07-01T19:56:39.649Z,36.40
2018-07-01T19:57:39.636Z,36.01
2018-07-01T19:58:39.625Z,36.21
2018-07-01T19:59:39.621Z,35.80
2018-07-01T20:00:39.607Z,35.90
2018-07-01T20:01:39.602Z,36.01
2018-07-01T20:02:39.586Z,36.09
2018-07-01T20:03:39.571Z,36.57
2018-07-01T20:04:39.563Z,36.40
2018-07-01T20:05:39.555Z,36.48
2018-07-01T20:06:39.549Z,36.67
2018-07-01T20:07:39.547Z,36.88
2018-07-01T20:08:39.519Z,36.57
2018-07-01T20:09:39.517Z,36.48
2018-07-01T20:10:39.504Z,36.57
2018-07-01T20:11:39.487Z,36.77
2018-07-01T20:12:39.482Z,36.96
2018-07-01T20:13:39.466Z,36.57
2018-07-01T20:14:39.457Z,36.77
2018-07-01T20:15:39.450Z,36.77
2018-07-01T20:16:39.432Z,36.77
2018-07-01T20:17:39.432Z,36.38
2018-07-01T20:18:39.455Z,36.87
2018-07-01T20:19:39.402Z,37.06
2018-07-01T20:20:39.402Z,37.15
2018-07-01T20:21:39.381Z,37.35
2018-07-01T20:22:39.377Z,37.45
2018-07-01T20:23:39.377Z,37.83
2018-07-01T20:24:39.360Z,38.02
2018-07-01T20:25:39.399Z,37.62
2018-07-01T20:26:39.332Z,37.71
2018-07-01T20:27:39.323Z,38.29
2018-07-01T20:28:39.313Z,38.87
2018-07-01T20:29:39.289Z,38.20
2018-07-01T20:30:39.280Z,38.49
2018-07-01T20:31:39.271Z,37.91
2018-07-01T20:32:39.265Z,38.66
2018-07-01T20:33:39.257Z,38.78
2018-07-01T20:34:39.248Z,39.16
2018-07-01T20:35:39.232Z,38.78
2018-07-01T20:36:39.227Z,38.85
2018-07-01T20:37:39.221Z,39.04
2018-07-01T20:38:39.201Z,39.14
2018-07-01T20:39:39.200Z,39.62
2018-07-01T20:40:39.170Z,38.85
2018-07-01T20:41:39.165Z,39.14
2018-07-01T20:42:39.151Z,39.34
2018-07-01T20:43:39.152Z,39.72
2018-07-01T20:44:39.128Z,40.30
2018-07-01T20:45:39.122Z,39.14
2018-07-01T20:46:39.110Z,39.82
2018-07-01T20:47:39.107Z,40.11
2018-07-01T20:48:39.090Z,40.20
2018-07-01T20:49:39.083Z,40.20
2018-07-01T20:50:39.055Z,40.20
2018-07-01T20:51:39.208Z,39.34
2018-07-01T20:52:39.038Z,39.91
2018-07-01T20:53:39.132Z,40.11
2018-07-01T20:54:39.023Z,40.28
2018-07-01T20:55:39.011Z,40.39
2018-07-01T20:56:38.987Z,40.01
2018-07-01T20:57:38.980Z,39.99
2018-07-01T20:58:39.014Z,39.99
2018-07-01T20:59:39.010Z,40.66
2018-07-01T21:00:38.955Z,40.30
2018-07-01T21:01:38.935Z,40.09
2018-07-01T21:02:38.921Z,40.47
2018-07-01T21:03:39.009Z,40.47
2018-07-01T21:04:38.900Z,40.19
2018-07-01T21:05:38.932Z,40.37
2018-07-01T21:06:38.874Z,40.86
2018-07-01T21:07:38.873Z,41.72
2018-07-01T21:08:38.862Z,41.82
2018-07-01T21:09:38.848Z,41.63
2018-07-01T21:10:38.834Z,41.44
2018-07-01T21:11:38.831Z,41.82
2018-07-01T21:12:38.878Z,41.82
2018-07-01T21:13:38.798Z,42.30
2018-07-01T21:14:38.788Z,42.59
2018-07-01T21:15:38.772Z,42.11
2018-07-01T21:16:38.767Z,42.11
2018-07-01T21:17:38.766Z,42.02
2018-07-01T21:18:38.743Z,42.02
2018-07-01T21:19:38.727Z,42.79
2018-07-01T21:20:38.719Z,41.34
2018-07-01T21:21:38.708Z,41.63
2018-07-01T21:22:38.689Z,41.63
2018-07-01T21:23:38.719Z,42.21
2018-07-01T21:24:38.673Z,42.21
2018-07-01T21:25:38.672Z,42.40
2018-07-01T21:26:38.648Z,41.82
2018-07-01T21:27:38.638Z,42.40
2018-07-01T21:28:38.627Z,42.30
2018-07-01T21:29:38.618Z,42.59
2018-07-01T21:30:38.600Z,42.79
2018-07-01T21:31:38.590Z,42.69
2018-07-01T21:32:38.576Z,42.11
2018-07-01T21:33:38.568Z,42.21
2018-07-01T21:34:38.557Z,42.02
2018-07-01T21:35:38.548Z,42.21
2018-07-01T21:36:38.541Z,42.88
2018-07-01T21:37:38.523Z,42.67
2018-07-01T21:38:38.517Z,42.57
2018-07-01T21:39:38.507Z,42.47
2018-07-01T21:40:38.483Z,42.67
2018-07-01T21:41:38.469Z,42.86
2018-07-01T21:42:38.467Z,42.86
2018-07-01T21:43:38.467Z,42.67
2018-07-01T21:44:38.437Z,42.76
2018-07-01T21:45:38.426Z,42.57
2018-07-01T21:46:38.417Z,43.05
2018-07-01T21:47:38.410Z,42.38
2018-07-01T21:48:38.399Z,43.05
2018-07-01T21:49:38.379Z,43.15
2018-07-01T21:50:38.366Z,42.96
2018-07-01T21:51:38.358Z,43.15
2018-07-01T21:52:38.340Z,43.23
2018-07-01T21:53:38.348Z,44.02
2018-07-01T21:54:38.321Z,43.63
2018-07-01T21:55:38.327Z,43.82
2018-07-01T21:56:38.298Z,44.11
2018-07-01T21:57:38.289Z,43.73
2018-07-01T21:58:38.277Z,43.23
2018-07-01T21:59:38.266Z,43.92
2018-07-01T22:00:38.264Z,44.02
2018-07-01T22:01:38.242Z,43.92
2018-07-01T22:02:38.224Z,43.61
2018-07-01T22:03:38.218Z,44.21
2018-07-01T22:04:38.217Z,44.02
2018-07-01T22:05:38.190Z,44.02
2018-07-01T22:06:38.191Z,44.09
2018-07-01T22:07:38.167Z,44.02
2018-07-01T22:08:38.161Z,44.02
2018-07-01T22:09:38.146Z,44.09
2018-07-01T22:10:38.238Z,44.09
2018-07-01T22:11:38.126Z,44.40
2018-07-01T22:12:38.106Z,44.09
2018-07-01T22:13:38.099Z,43.99
2018-07-01T22:14:38.086Z,43.90
2018-07-01T22:15:38.088Z,44.28
2018-07-01T22:16:38.062Z,44.74
2018-07-01T22:17:38.047Z,45.61
2018-07-01T22:18:38.039Z,45.51
2018-07-01T22:19:38.024Z,45.44
2018-07-01T22:20:38.015Z,44.86
2018-07-01T22:21:38.007Z,44.93
2018-07-01T22:22:37.986Z,45.73
2018-07-01T22:23:37.990Z,45.53
2018-07-01T22:24:37.964Z,45.05
2018-07-01T22:25:37.951Z,44.76
2018-07-01T22:26:37.939Z,45.73
2018-07-01T22:27:37.929Z,45.92
2018-07-01T22:28:37.913Z,45.73
2018-07-01T22:29:37.904Z,44.86
2018-07-01T22:30:37.893Z,44.57
2018-07-01T22:31:37.887Z,45.25
2018-07-01T22:32:37.876Z,45.03
2018-07-01T22:33:37.872Z,45.61
2018-07-01T22:34:37.844Z,45.51
2018-07-01T22:35:37.841Z,45.70
2018-07-01T22:36:37.826Z,45.61
2018-07-01T22:37:37.806Z,45.90
2018-07-01T22:38:37.795Z,45.70
2018-07-01T22:39:37.793Z,45.70
2018-07-01T22:40:44.040Z,45.80
2018-07-01T22:41:37.755Z,46.19
2018-07-01T22:42:37.743Z,46.19
2018-07-01T22:43:37.736Z,46.28
2018-07-01T22:44:37.730Z,46.19
2018-07-01T22:45:37.710Z,45.90
2018-07-01T22:46:37.697Z,46.28
2018-07-01T22:47:37.686Z,45.90
2018-07-01T22:48:37.684Z,46.09
2018-07-01T22:49:37.665Z,45.90
2018-07-01T22:50:37.645Z,46.28
2018-07-01T22:51:37.636Z,46.19
2018-07-01T22:52:37.621Z,46.19
2018-07-01T22:53:37.615Z,46.19
2018-07-01T22:54:37.605Z,46.28
2018-07-01T22:55:37.593Z,46.38
2018-07-01T22:56:37.581Z,45.80
2018-07-01T22:57:37.565Z,46.09
2018-07-01T22:58:37.554Z,46.55
2018-07-01T22:59:37.539Z,46.84
2018-07-01T23:00:37.527Z,46.84
2018-07-01T23:01:37.516Z,46.74
2018-07-01T23:02:37.499Z,46.84
2018-07-01T23:03:37.523Z,46.93
2018-07-01T23:04:37.480Z,47.70
2018-07-01T23:05:37.466Z,47.03
2018-07-01T23:06:37.448Z,47.03
2018-07-01T23:07:37.445Z,47.41
2018-07-01T23:08:37.428Z,47.80
2018-07-01T23:09:37.414Z,47.99
2018-07-01T23:10:37.405Z,47.41
2018-07-01T23:11:37.396Z,47.99
2018-07-01T23:12:37.376Z,47.13
2018-07-01T23:13:37.364Z,47.51
2018-07-01T23:14:37.354Z,47.31
2018-07-01T23:15:37.344Z,48.07
2018-07-01T23:16:37.336Z,48.07
2018-07-01T23:17:37.331Z,48.83
2018-07-01T23:18:37.306Z,48.54
2018-07-01T23:19:37.293Z,48.45
2018-07-01T23:20:37.279Z,48.93
2018-07-01T23:21:37.268Z,48.74
2018-07-01T23:22:37.256Z,48.54
2018-07-01T23:23:37.239Z,48.25
2018-07-01T23:24:37.226Z,49.12
2018-07-01T23:25:37.214Z,49.02
2018-07-01T23:26:37.207Z,48.64
2018-07-01T23:27:37.191Z,48.64
2018-07-01T23:28:37.179Z,48.54
2018-07-01T23:29:37.167Z,48.64
2018-07-01T23:30:37.152Z,48.54
2018-07-01T23:31:37.140Z,48.93
2018-07-01T23:32:37.125Z,48.83
2018-07-01T23:33:37.116Z,48.64
2018-07-01T23:34:37.104Z,49.02
2018-07-01T23:35:37.087Z,49.12
2018-07-01T23:36:37.076Z,48.93
2018-07-01T23:37:37.064Z,48.54
2018-07-01T23:38:37.059Z,49.12
2018-07-01T23:39:37.047Z,48.93
2018-07-01T23:40:37.026Z,49.89
2018-07-01T23:41:37.017Z,49.99
2018-07-01T23:42:37.007Z,49.12
2018-07-01T23:43:36.987Z,49.89
2018-07-01T23:44:36.977Z,49.89
2018-07-01T23:45:36.970Z,49.60
2018-07-01T23:46:36.955Z,50.27
2018-07-01T23:47:36.937Z,49.96
2018-07-01T23:48:36.927Z,50.34
2018-07-01T23:49:36.911Z,50.15
2018-07-01T23:50:36.899Z,50.27
2018-07-01T23:51:36.895Z,49.67
2018-07-01T23:52:36.882Z,49.51
2018-07-01T23:53:36.867Z,49.60
2018-07-01T23:54:36.849Z,49.57
2018-07-01T23:55:36.843Z,49.67
2018-07-01T23:56:36.827Z,49.79
2018-07-01T23:57:36.809Z,49.79
2018-07-01T23:58:36.808Z,49.29
2018-07-01T23:59:36.787Z,49.48
